avis per tempestes more information blitzortung!


avis per Pluja more information rain snow radar


Visita la nostra xarxa de llocs de meteo:

Template documentation
and downloads

And another site



Rain From: 17-08-2018 13:00 Until: 22:59 warning for: Rain Level: Orange info button
Thunderstorms From: 17-08-2018 12:00 Until: 18-08-2018 08:59 warning for: Thunderstorms Level: Yellow info button

Nearby METAR Reports

   
LEBL - Barcelona Airpor, Spain
Distancia fins a l'estacio: SSE 30 km
Actualitzacio: 17-08-2018 14:30
tempesta, pluja, Nearby Showers, Parcialment ennuvolat  
tempesta, pluja, Nearby Showers, Parcialment ennuvolat  
   Vent: North 38.9 km/h
Vent: North 38.9 km/h
Temperatura: 23°C
Punt de rosada: 18°C
Humitat: 74%
Barometre: 1018 hPa
Nuvols: Mostly Cloudy
Visibilitat: More than 10 km
Cloud details: Nuvols dispersos 2000 ft,
Parcialment tapat 3000 ft,
Parcialment ennuvolat 5000 ft
LEBL 171230Z 35021KT 310V010 9999 TS -RA VCSH FEW020 SCT030CB BKN050 23/18 Q1018 NOSIG
LELL - Sabadell, Spain
Distancia fins a l'estacio: WNW 14 km
Actualitzacio: 17-08-2018 14:30
Heavy Thunderstorm, Pluja, Parcialment ennuvolat  
Heavy Thunderstorm, Pluja, Parcialment ennuvolat  
   Vent: varia 7.4 km/h
Vent: varia 7.4 km/h
Temperatura: 19°C
Punt de rosada: 18°C
Humitat: 94%
Barometre: 1018 hPa
Nuvols: Mostly Cloudy
Visibilitat: 4 km
Cloud details: Parcialment tapat 3000 ft,
Parcialment ennuvolat 4000 ft
LELL 171230Z VRB04KT 4000 +TSRA SCT030CB BKN040 19/18 Q1018
LEGE - Girona/Costa Bra, Spain
Distancia fins a l'estacio: NE 65 km
Actualitzacio: 17-08-2018 14:30
tempesta, Pluja, Parcialment ennuvolat  
tempesta, Pluja, Parcialment ennuvolat  
   Vent: North 11.1 km/h
Vent: North 11.1 km/h
Temperatura: 17°C
Punt de rosada: 17°C
Humitat: 100%
Barometre: 1020 hPa
Nuvols: Mostly Cloudy
Visibilitat: 3 km
Cloud details: Nuvols dispersos 1000 ft,
Parcialment ennuvolat 3000 ft
LEGE 171230Z 35006KT 3000 TSRA FEW010 BKN030CB 17/17 Q1020
LERS - Reus (civ/Mil), Spain
Distancia fins a l'estacio: WSW 96 km
Actualitzacio: 17-08-2018 14:30
Nuvols dispersos  
Nuvols dispersos  
   Vent: South 5.6 km/h
Vent: South 5.6 km/h
Temperatura: 30°C
index de calor: 31°C
Punt de rosada: 18°C
Humitat: 49%
Barometre: 1016 hPa
Nuvols: Few Clouds
Visibilitat: More than 10 km
Cloud details: Nuvols dispersos 2500 ft
LERS 171230Z 17003KT 100V240 9999 FEW025 30/18 Q1016
LESU - Pirineus/La Seu, Spain
Distancia fins a l'estacio: NW 121 km
Actualitzacio: 17-08-2018 14:30
tempesta, Nearby Showers, Parcialment tapat  
tempesta, Nearby Showers, Parcialment tapat  
   Vent: varia 5.6 km/h
Vent: varia 5.6 km/h
Temperatura: 24°C
Punt de rosada: 14°C
Humitat: 54%
Barometre: 1020 hPa
Nuvols: Partly Cloudy
Visibilitat: More than 10 km
Cloud details: Nuvols dispersos 3000 ft,
Parcialment tapat 3500 ft
LESU 171230Z VRB03KT 9999 TS VCSH FEW030 SCT035CB 24/14 Q1020
LEDA - Lleida/Alguaire, Spain
Distancia fins a l'estacio: WNW 146 km
Actualitzacio: 17-08-2018 14:30
Nuvols dispersos  
Nuvols dispersos  
   Vent: WSW 13 km/h
Vent: WSW 13 km/h
Temperatura: 25°C
Punt de rosada: 17°C
Humitat: 61%
Barometre: 1018 hPa
Nuvols: Few Clouds
Visibilitat: More than 10 km
Cloud details: Nuvols dispersos 3000 ft
LEDA 171230Z 24007KT 190V280 9999 FEW030 25/17 Q1018
LFMP - Perpignan/Rivesa, France
Distancia fins a l'estacio: NNE 150 km
Actualitzacio: 17-08-2018 14:30
Parcialment ennuvolat  
Parcialment ennuvolat  
   Vent: NW 25.9 km/h
Vent: NW 25.9 km/h
Temperatura: 25°C
Punt de rosada: 15°C
Humitat: 54%
Barometre: 1018 hPa
Nuvols: Mostly Cloudy
Visibilitat: More than 10 km
Cloud details: Nuvols dispersos 8600 ft,
Parcialment ennuvolat 11000 ft,
Parcialment ennuvolat 13000 ft,
tempesta ft
LFMP 171230Z AUTO 32014KT 9999 FEW086/// BKN110/// BKN130/// ///TCU 25/15 Q1018 TEMPO 31015G30KT BECMG NSC
LEPA - Palma De Mallorca, Spain
Distancia fins a l'estacio: S 216 km
Actualitzacio: 17-08-2018 14:30
Nearby Thunderstorm, Parcialment tapat  
Nearby Thunderstorm, Parcialment tapat  
   Vent: South 13 km/h
Vent: South 13 km/h
Temperatura: 28°C
index de calor: 31°C
Punt de rosada: 23°C
Humitat: 74%
Barometre: 1016 hPa
Nuvols: Partly Cloudy
Visibilitat: More than 10 km
Cloud details: Parcialment tapat 2500 ft,
Parcialment tapat 4000 ft
LEPA 171230Z 17007KT 130V210 9999 VCTS SCT025CB SCT040 28/23 Q1016 TEMPO 4000 TSRA
 

Guio original per  Saratoga-weather.org Adaptat per a la plantilla per  Weerstation Leuven

Trobareu la nostra informacio del temps tambe a:

Weather Underground

AWEKAS